الصفحة الرئيسية
METAR-TAF:

METAR-TAF

مطار :

مطار جناح الدولي

كراتشي, باكستان

دائرة عرض: 24-54N, خط طول: 067-08E, ارتفاع: 21 متر

مراقبة الطقس الحالي

تاريخ ووقت الإصدار 27 دقيقة قبل الساعة 07:55UTC
ريح 12 عقدة من الجنوب الغربي
درجة الحرارة 34°درجة مئوية
الرطوبة 23%
ضغط 1012 hPa
الرؤية: 5000 متر
العجاج

METAR: OPKC 190755Z 23012KT 5000 HZ NSC 34/10 Q1012 NOSIG

زمن: 13:22 (08:22 UTC)

توقعات

تاريخ ووقت الإصدار 5ساعات و 22 دقيقة قبل الساعة 03:00UTC
التوقعات صالحة من19 الساعة 06 UTC إلى 20 الساعة 12 UTC
ريح 8 عقدة من الغرب/الجنوب الغربي تتزايد حتى 18 عقدة
الرؤية: 6000 متر
أصبح
من 18 الساعة 29 UTC إلى 19 الساعة 22 UTC
ريح 7 عقدة من الغرب/الشمال الغربي
الرؤية: 5000 متر
العجاج
مؤقت
من 20 الساعة 01 UTC إلى 20 الساعة 05 UTC
ريح 5 عقدة من الغرب/الشمال الغربي
الرؤية: 4000 متر
العجاج
من 20 الساعة 0600 UTC
ريح 10 عقدة من الغرب/الجنوب الغربي تتزايد حتى 20 عقدة
الرؤية: 6000 متر

TAF: OPKC 190300Z 1906/2012 25008G18KT 6000 NSC BECMG 1829/1922 29007KT 5000 HZ NSC TEMPO 2001/2005 29005KT 4000 HZ NSC FM200600 25010G20KT 6000 NSC

أرصاد الطقس والتوقعات من أكثر من 4000 مطار (تقارير الطقس للمطار METAR والتنبؤ بالطقس بالمطارTAF).

المحطات المتاحة هي النقط الصفراء والحمراء على الخريطة.

حرك المؤشر فوق النقطة لمعرفة اسم المحطة.

ثم انقر لمعرفة أرصاد وتوقعات الطقس.

لتغيير الخارطة: اضغط على الأزرار الخضراء مع رمز الصليب الأسود للتكبير. على الزر الأخضر مع شرطة للتصغير، أو على الأسهم الخضراء للخرائط المجاورة.


METAR-TAF: